sensor_id;sensor_type;location;lat;lon;timestamp;temperature;humidity
50162;DHT22;36061;48.116;11.612;2024-03-02T00:00:51;6.60;99.90
50162;DHT22;36061;48.116;11.612;2024-03-02T00:03:19;6.60;99.90
50162;DHT22;36061;48.116;11.612;2024-03-02T00:05:50;6.60;99.90
50162;DHT22;36061;48.116;11.612;2024-03-02T00:08:23;6.60;99.90
50162;DHT22;36061;48.116;11.612;2024-03-02T00:10:52;6.60;99.90
50162;DHT22;36061;48.116;11.612;2024-03-02T00:13:24;6.60;99.90
50162;DHT22;36061;48.116;11.612;2024-03-02T00:15:54;6.60;99.90
50162;DHT22;36061;48.116;11.612;2024-03-02T00:18:25;6.60;99.90
50162;DHT22;36061;48.116;11.612;2024-03-02T00:20:56;6.60;99.90
50162;DHT22;36061;48.116;11.612;2024-03-02T00:23:25;6.50;99.90
50162;DHT22;36061;48.116;11.612;2024-03-02T00:25:55;6.60;99.90
50162;DHT22;36061;48.116;11.612;2024-03-02T00:28:24;6.60;99.90
50162;DHT22;36061;48.116;11.612;2024-03-02T00:30:55;6.60;99.90
50162;DHT22;36061;48.116;11.612;2024-03-02T00:33:22;6.50;99.90
50162;DHT22;36061;48.116;11.612;2024-03-02T00:35:51;6.50;99.90
50162;DHT22;36061;48.116;11.612;2024-03-02T00:38:19;6.50;99.90
50162;DHT22;36061;48.116;11.612;2024-03-02T00:40:46;6.50;99.90
50162;DHT22;36061;48.116;11.612;2024-03-02T00:46:29;6.50;99.90
50162;DHT22;36061;48.116;11.612;2024-03-02T00:48:57;6.50;99.90
50162;DHT22;36061;48.116;11.612;2024-03-02T00:51:28;6.50;99.90
50162;DHT22;36061;48.116;11.612;2024-03-02T00:53:58;6.50;99.90
50162;DHT22;36061;48.116;11.612;2024-03-02T00:56:26;6.40;99.90
50162;DHT22;36061;48.116;11.612;2024-03-02T00:58:53;6.40;99.90
50162;DHT22;36061;48.116;11.612;2024-03-02T01:01:21;6.40;99.90
50162;DHT22;36061;48.116;11.612;2024-03-02T01:03:50;6.50;99.90
50162;DHT22;36061;48.116;11.612;2024-03-02T01:06:17;6.40;99.90
50162;DHT22;36061;48.116;11.612;2024-03-02T01:08:45;6.40;99.90
50162;DHT22;36061;48.116;11.612;2024-03-02T01:11:17;6.50;99.90
50162;DHT22;36061;48.116;11.612;2024-03-02T01:13:45;6.50;99.90
50162;DHT22;36061;48.116;11.612;2024-03-02T01:16:12;6.40;99.90
50162;DHT22;36061;48.116;11.612;2024-03-02T01:18:39;6.40;99.90
50162;DHT22;36061;48.116;11.612;2024-03-02T01:21:08;6.40;99.90
50162;DHT22;36061;48.116;11.612;2024-03-02T01:23:35;6.40;99.90
50162;DHT22;36061;48.116;11.612;2024-03-02T01:26:03;6.40;99.90
50162;DHT22;36061;48.116;11.612;2024-03-02T01:28:31;6.40;99.90
50162;DHT22;36061;48.116;11.612;2024-03-02T01:30:59;6.50;99.90
50162;DHT22;36061;48.116;11.612;2024-03-02T01:33:28;6.40;99.90
50162;DHT22;36061;48.116;11.612;2024-03-02T01:35:55;6.40;99.90
50162;DHT22;36061;48.116;11.612;2024-03-02T01:38:24;6.40;99.90
50162;DHT22;36061;48.116;11.612;2024-03-02T01:40:51;6.40;99.90
50162;DHT22;36061;48.116;11.612;2024-03-02T01:43:18;6.40;99.90
50162;DHT22;36061;48.116;11.612;2024-03-02T01:45:46;6.40;99.90
50162;DHT22;36061;48.116;11.612;2024-03-02T01:48:13;6.40;99.90
50162;DHT22;36061;48.116;11.612;2024-03-02T01:50:40;6.30;99.90
50162;DHT22;36061;48.116;11.612;2024-03-02T01:53:09;6.30;99.90
50162;DHT22;36061;48.116;11.612;2024-03-02T01:55:38;6.30;99.90
50162;DHT22;36061;48.116;11.612;2024-03-02T01:58:05;6.30;99.90
50162;DHT22;36061;48.116;11.612;2024-03-02T02:00:32;6.30;99.90
50162;DHT22;36061;48.116;11.612;2024-03-02T02:03:00;6.30;99.90
50162;DHT22;36061;48.116;11.612;2024-03-02T02:05:27;6.30;99.90
50162;DHT22;36061;48.116;11.612;2024-03-02T02:07:55;6.30;99.90
50162;DHT22;36061;48.116;11.612;2024-03-02T02:10:24;6.40;99.90
50162;DHT22;36061;48.116;11.612;2024-03-02T02:12:53;6.40;99.90
50162;DHT22;36061;48.116;11.612;2024-03-02T02:15:24;6.30;99.90
50162;DHT22;36061;48.116;11.612;2024-03-02T02:17:52;6.30;99.90
50162;DHT22;36061;48.116;11.612;2024-03-02T02:20:20;6.30;99.90
50162;DHT22;36061;48.116;11.612;2024-03-02T02:22:56;6.30;99.90
50162;DHT22;36061;48.116;11.612;2024-03-02T02:25:24;6.30;99.90
50162;DHT22;36061;48.116;11.612;2024-03-02T02:27:51;6.30;99.90
50162;DHT22;36061;48.116;11.612;2024-03-02T02:30:19;6.30;99.90
50162;DHT22;36061;48.116;11.612;2024-03-02T02:32:47;6.30;99.90
50162;DHT22;36061;48.116;11.612;2024-03-02T02:35:15;6.30;99.90
50162;DHT22;36061;48.116;11.612;2024-03-02T02:37:43;6.30;99.90
50162;DHT22;36061;48.116;11.612;2024-03-02T02:40:13;6.30;99.90
50162;DHT22;36061;48.116;11.612;2024-03-02T02:42:40;6.30;99.90
50162;DHT22;36061;48.116;11.612;2024-03-02T02:45:08;6.30;99.90
50162;DHT22;36061;48.116;11.612;2024-03-02T02:47:37;6.30;99.90
50162;DHT22;36061;48.116;11.612;2024-03-02T02:50:06;6.30;99.90
50162;DHT22;36061;48.116;11.612;2024-03-02T02:52:34;6.30;99.90
50162;DHT22;36061;48.116;11.612;2024-03-02T02:55:07;6.30;99.90
50162;DHT22;36061;48.116;11.612;2024-03-02T02:57:36;6.30;99.90
50162;DHT22;36061;48.116;11.612;2024-03-02T03:00:06;6.30;99.90
50162;DHT22;36061;48.116;11.612;2024-03-02T03:02:37;6.30;99.90
50162;DHT22;36061;48.116;11.612;2024-03-02T03:05:06;6.30;99.90
50162;DHT22;36061;48.116;11.612;2024-03-02T03:07:34;6.30;99.90
50162;DHT22;36061;48.116;11.612;2024-03-02T03:10:02;6.30;99.90
50162;DHT22;36061;48.116;11.612;2024-03-02T03:12:30;6.30;99.90
50162;DHT22;36061;48.116;11.612;2024-03-02T03:14:59;6.30;99.90
50162;DHT22;36061;48.116;11.612;2024-03-02T03:17:27;6.30;99.90
50162;DHT22;36061;48.116;11.612;2024-03-02T03:19:54;6.30;99.90
50162;DHT22;36061;48.116;11.612;2024-03-02T03:22:22;6.30;99.90
50162;DHT22;36061;48.116;11.612;2024-03-02T03:24:49;6.30;99.90
50162;DHT22;36061;48.116;11.612;2024-03-02T03:27:16;6.30;99.90
50162;DHT22;36061;48.116;11.612;2024-03-02T03:29:44;6.30;99.90
50162;DHT22;36061;48.116;11.612;2024-03-02T03:32:12;6.30;99.90
50162;DHT22;36061;48.116;11.612;2024-03-02T03:34:40;6.30;99.90
50162;DHT22;36061;48.116;11.612;2024-03-02T03:37:07;6.30;99.90
50162;DHT22;36061;48.116;11.612;2024-03-02T03:39:36;6.30;99.90
50162;DHT22;36061;48.116;11.612;2024-03-02T03:42:03;6.30;99.90
50162;DHT22;36061;48.116;11.612;2024-03-02T03:44:30;6.40;99.90
50162;DHT22;36061;48.116;11.612;2024-03-02T03:46:58;6.40;99.90
50162;DHT22;36061;48.116;11.612;2024-03-02T03:49:28;6.40;99.90
50162;DHT22;36061;48.116;11.612;2024-03-02T03:51:55;6.40;99.90
50162;DHT22;36061;48.116;11.612;2024-03-02T03:54:23;6.40;99.90
50162;DHT22;36061;48.116;11.612;2024-03-02T03:56:50;6.40;99.90
50162;DHT22;36061;48.116;11.612;2024-03-02T03:59:17;6.40;99.90
50162;DHT22;36061;48.116;11.612;2024-03-02T04:01:45;6.40;99.90
50162;DHT22;36061;48.116;11.612;2024-03-02T04:04:12;6.40;99.90
50162;DHT22;36061;48.116;11.612;2024-03-02T04:06:41;6.40;99.90
50162;DHT22;36061;48.116;11.612;2024-03-02T04:09:08;6.40;99.90
50162;DHT22;36061;48.116;11.612;2024-03-02T04:11:36;6.40;99.90
50162;DHT22;36061;48.116;11.612;2024-03-02T04:14:03;6.40;99.90
50162;DHT22;36061;48.116;11.612;2024-03-02T04:16:32;6.30;99.90
50162;DHT22;36061;48.116;11.612;2024-03-02T04:18:59;6.40;99.90
50162;DHT22;36061;48.116;11.612;2024-03-02T04:21:26;6.40;99.90
50162;DHT22;36061;48.116;11.612;2024-03-02T04:23:55;6.30;99.90
50162;DHT22;36061;48.116;11.612;2024-03-02T04:26:24;6.30;99.90
50162;DHT22;36061;48.116;11.612;2024-03-02T04:28:51;6.30;99.90
50162;DHT22;36061;48.116;11.612;2024-03-02T04:31:20;6.30;99.90
50162;DHT22;36061;48.116;11.612;2024-03-02T04:33:47;6.30;99.90
50162;DHT22;36061;48.116;11.612;2024-03-02T04:36:14;6.30;99.90
50162;DHT22;36061;48.116;11.612;2024-03-02T04:38:42;6.30;99.90
50162;DHT22;36061;48.116;11.612;2024-03-02T04:41:11;6.30;99.90
50162;DHT22;36061;48.116;11.612;2024-03-02T04:43:38;6.30;99.90
50162;DHT22;36061;48.116;11.612;2024-03-02T04:46:05;6.40;99.90
50162;DHT22;36061;48.116;11.612;2024-03-02T04:48:33;6.40;99.90
50162;DHT22;36061;48.116;11.612;2024-03-02T04:51:00;6.40;99.90
50162;DHT22;36061;48.116;11.612;2024-03-02T04:53:28;6.40;99.90
50162;DHT22;36061;48.116;11.612;2024-03-02T04:55:55;6.40;99.90
50162;DHT22;36061;48.116;11.612;2024-03-02T04:58:54;6.40;99.90
50162;DHT22;36061;48.116;11.612;2024-03-02T05:01:22;6.30;99.90
50162;DHT22;36061;48.116;11.612;2024-03-02T05:03:49;6.30;99.90
50162;DHT22;36061;48.116;11.612;2024-03-02T05:06:17;6.40;99.90
50162;DHT22;36061;48.116;11.612;2024-03-02T05:08:44;6.40;99.90
50162;DHT22;36061;48.116;11.612;2024-03-02T05:11:11;6.30;99.90
50162;DHT22;36061;48.116;11.612;2024-03-02T05:14:12;6.30;99.90
50162;DHT22;36061;48.116;11.612;2024-03-02T05:16:39;6.20;99.90
50162;DHT22;36061;48.116;11.612;2024-03-02T05:19:07;6.30;99.90
50162;DHT22;36061;48.116;11.612;2024-03-02T05:21:34;6.30;99.90
50162;DHT22;36061;48.116;11.612;2024-03-02T05:24:01;6.30;99.90
50162;DHT22;36061;48.116;11.612;2024-03-02T05:26:29;6.30;99.90
50162;DHT22;36061;48.116;11.612;2024-03-02T05:28:56;6.30;99.90
50162;DHT22;36061;48.116;11.612;2024-03-02T05:31:25;6.30;99.90
50162;DHT22;36061;48.116;11.612;2024-03-02T05:33:52;6.30;99.90
50162;DHT22;36061;48.116;11.612;2024-03-02T05:36:19;6.30;99.90
50162;DHT22;36061;48.116;11.612;2024-03-02T05:38:47;6.40;99.90
50162;DHT22;36061;48.116;11.612;2024-03-02T05:41:15;6.40;99.90
50162;DHT22;36061;48.116;11.612;2024-03-02T05:43:42;6.40;99.90
50162;DHT22;36061;48.116;11.612;2024-03-02T05:46:09;6.40;99.90
50162;DHT22;36061;48.116;11.612;2024-03-02T05:48:39;6.30;99.90
50162;DHT22;36061;48.116;11.612;2024-03-02T05:51:06;6.30;99.90
50162;DHT22;36061;48.116;11.612;2024-03-02T05:53:34;6.30;99.90
50162;DHT22;36061;48.116;11.612;2024-03-02T05:56:04;6.30;99.90
50162;DHT22;36061;48.116;11.612;2024-03-02T05:58:32;6.30;99.90
50162;DHT22;36061;48.116;11.612;2024-03-02T06:01:12;6.30;99.90
50162;DHT22;36061;48.116;11.612;2024-03-02T06:03:41;6.30;99.90
50162;DHT22;36061;48.116;11.612;2024-03-02T06:06:08;6.30;99.90
50162;DHT22;36061;48.116;11.612;2024-03-02T06:08:36;6.30;99.90
50162;DHT22;36061;48.116;11.612;2024-03-02T06:11:03;6.30;99.90
50162;DHT22;36061;48.116;11.612;2024-03-02T06:13:30;6.30;99.90
50162;DHT22;36061;48.116;11.612;2024-03-02T06:15:58;6.30;99.90
50162;DHT22;36061;48.116;11.612;2024-03-02T06:18:25;6.30;99.90
50162;DHT22;36061;48.116;11.612;2024-03-02T06:20:54;6.40;99.90
50162;DHT22;36061;48.116;11.612;2024-03-02T06:23:22;6.40;99.90
50162;DHT22;36061;48.116;11.612;2024-03-02T06:25:49;6.40;99.90
50162;DHT22;36061;48.116;11.612;2024-03-02T06:28:16;6.40;99.90
50162;DHT22;36061;48.116;11.612;2024-03-02T06:30:44;6.50;99.90
50162;DHT22;36061;48.116;11.612;2024-03-02T06:33:12;6.50;99.90
50162;DHT22;36061;48.116;11.612;2024-03-02T06:35:39;6.50;99.90
50162;DHT22;36061;48.116;11.612;2024-03-02T06:38:08;6.50;99.90
50162;DHT22;36061;48.116;11.612;2024-03-02T06:40:35;6.50;99.90
50162;DHT22;36061;48.116;11.612;2024-03-02T06:43:04;6.60;99.90
50162;DHT22;36061;48.116;11.612;2024-03-02T06:45:31;6.70;99.90
50162;DHT22;36061;48.116;11.612;2024-03-02T06:48:00;6.70;99.90
50162;DHT22;36061;48.116;11.612;2024-03-02T06:50:27;6.70;99.90
50162;DHT22;36061;48.116;11.612;2024-03-02T06:52:56;6.70;99.90
50162;DHT22;36061;48.116;11.612;2024-03-02T06:55:24;6.70;99.90
50162;DHT22;36061;48.116;11.612;2024-03-02T06:57:52;6.70;99.90
50162;DHT22;36061;48.116;11.612;2024-03-02T07:00:20;6.70;99.90
50162;DHT22;36061;48.116;11.612;2024-03-02T07:02:47;6.70;99.90
50162;DHT22;36061;48.116;11.612;2024-03-02T07:05:15;6.70;99.90
50162;DHT22;36061;48.116;11.612;2024-03-02T07:07:43;6.80;99.90
50162;DHT22;36061;48.116;11.612;2024-03-02T07:10:10;6.80;99.90
50162;DHT22;36061;48.116;11.612;2024-03-02T07:12:39;6.90;99.90
50162;DHT22;36061;48.116;11.612;2024-03-02T07:15:07;6.90;99.90
50162;DHT22;36061;48.116;11.612;2024-03-02T07:17:52;6.90;99.90
50162;DHT22;36061;48.116;11.612;2024-03-02T07:20:19;7.00;99.90
50162;DHT22;36061;48.116;11.612;2024-03-02T07:22:47;7.00;99.90
50162;DHT22;36061;48.116;11.612;2024-03-02T07:25:14;7.00;99.90
50162;DHT22;36061;48.116;11.612;2024-03-02T07:27:43;7.00;99.90
50162;DHT22;36061;48.116;11.612;2024-03-02T07:30:14;7.00;99.90
50162;DHT22;36061;48.116;11.612;2024-03-02T07:32:43;7.00;99.90
50162;DHT22;36061;48.116;11.612;2024-03-02T07:35:12;7.10;99.90
50162;DHT22;36061;48.116;11.612;2024-03-02T07:37:41;7.10;99.90
50162;DHT22;36061;48.116;11.612;2024-03-02T07:40:09;7.00;99.90
50162;DHT22;36061;48.116;11.612;2024-03-02T07:42:38;7.00;99.90
50162;DHT22;36061;48.116;11.612;2024-03-02T07:45:08;7.00;99.90
50162;DHT22;36061;48.116;11.612;2024-03-02T07:47:35;7.10;99.90
50162;DHT22;36061;48.116;11.612;2024-03-02T07:50:03;7.10;99.90
50162;DHT22;36061;48.116;11.612;2024-03-02T07:52:32;7.10;99.90
50162;DHT22;36061;48.116;11.612;2024-03-02T07:55:00;7.10;99.90
50162;DHT22;36061;48.116;11.612;2024-03-02T07:57:27;7.10;99.90
50162;DHT22;36061;48.116;11.612;2024-03-02T07:59:54;7.20;99.90
50162;DHT22;36061;48.116;11.612;2024-03-02T08:02:23;7.50;99.90
50162;DHT22;36061;48.116;11.612;2024-03-02T08:04:50;8.30;99.90
50162;DHT22;36061;48.116;11.612;2024-03-02T08:07:18;9.30;99.90
50162;DHT22;36061;48.116;11.612;2024-03-02T08:09:45;10.00;99.90
50162;DHT22;36061;48.116;11.612;2024-03-02T08:12:12;10.60;99.90
50162;DHT22;36061;48.116;11.612;2024-03-02T08:14:40;11.00;99.90
50162;DHT22;36061;48.116;11.612;2024-03-02T08:17:07;11.60;99.90
50162;DHT22;36061;48.116;11.612;2024-03-02T08:19:37;12.10;99.90
50162;DHT22;36061;48.116;11.612;2024-03-02T08:22:05;12.10;99.90
50162;DHT22;36061;48.116;11.612;2024-03-02T08:24:32;11.60;99.90
50162;DHT22;36061;48.116;11.612;2024-03-02T08:27:00;11.10;99.90
50162;DHT22;36061;48.116;11.612;2024-03-02T08:29:27;10.50;99.90
50162;DHT22;36061;48.116;11.612;2024-03-02T08:31:54;10.00;99.90
50162;DHT22;36061;48.116;11.612;2024-03-02T08:34:22;9.60;99.90
50162;DHT22;36061;48.116;11.612;2024-03-02T08:36:50;9.30;99.90
50162;DHT22;36061;48.116;11.612;2024-03-02T08:39:26;9.00;99.90
50162;DHT22;36061;48.116;11.612;2024-03-02T08:41:54;8.90;99.90
50162;DHT22;36061;48.116;11.612;2024-03-02T08:44:21;8.60;99.90
50162;DHT22;36061;48.116;11.612;2024-03-02T08:46:49;8.50;99.90
50162;DHT22;36061;48.116;11.612;2024-03-02T08:49:16;8.50;99.90
50162;DHT22;36061;48.116;11.612;2024-03-02T08:51:44;8.40;99.90
50162;DHT22;36061;48.116;11.612;2024-03-02T08:54:21;8.30;99.90
50162;DHT22;36061;48.116;11.612;2024-03-02T08:56:49;8.40;99.90
50162;DHT22;36061;48.116;11.612;2024-03-02T08:59:16;8.40;99.90
50162;DHT22;36061;48.116;11.612;2024-03-02T09:01:44;8.40;99.90
50162;DHT22;36061;48.116;11.612;2024-03-02T09:04:12;8.50;99.90
50162;DHT22;36061;48.116;11.612;2024-03-02T09:06:39;8.50;99.90
50162;DHT22;36061;48.116;11.612;2024-03-02T09:09:07;8.60;99.90
50162;DHT22;36061;48.116;11.612;2024-03-02T09:11:35;8.60;99.90
50162;DHT22;36061;48.116;11.612;2024-03-02T09:14:03;8.70;99.90
50162;DHT22;36061;48.116;11.612;2024-03-02T09:16:31;8.70;99.90
50162;DHT22;36061;48.116;11.612;2024-03-02T09:18:58;8.80;99.90
50162;DHT22;36061;48.116;11.612;2024-03-02T09:21:26;8.90;99.90
50162;DHT22;36061;48.116;11.612;2024-03-02T09:23:53;9.00;99.90
50162;DHT22;36061;48.116;11.612;2024-03-02T09:26:20;9.00;99.90
50162;DHT22;36061;48.116;11.612;2024-03-02T09:28:49;9.00;99.90
50162;DHT22;36061;48.116;11.612;2024-03-02T09:31:17;9.00;99.90
50162;DHT22;36061;48.116;11.612;2024-03-02T09:33:44;9.00;99.90
50162;DHT22;36061;48.116;11.612;2024-03-02T09:36:18;9.00;99.90
50162;DHT22;36061;48.116;11.612;2024-03-02T09:38:46;9.00;99.90
50162;DHT22;36061;48.116;11.612;2024-03-02T09:41:14;9.10;99.90
50162;DHT22;36061;48.116;11.612;2024-03-02T09:43:42;9.10;99.90
50162;DHT22;36061;48.116;11.612;2024-03-02T09:46:11;9.20;99.90
50162;DHT22;36061;48.116;11.612;2024-03-02T09:48:39;9.30;99.90
50162;DHT22;36061;48.116;11.612;2024-03-02T09:51:07;9.40;99.90
50162;DHT22;36061;48.116;11.612;2024-03-02T09:53:34;9.50;99.90
50162;DHT22;36061;48.116;11.612;2024-03-02T09:56:02;9.60;99.90
50162;DHT22;36061;48.116;11.612;2024-03-02T09:58:30;9.70;99.90
50162;DHT22;36061;48.116;11.612;2024-03-02T10:00:58;9.70;99.90
50162;DHT22;36061;48.116;11.612;2024-03-02T10:03:26;9.70;99.90
50162;DHT22;36061;48.116;11.612;2024-03-02T10:05:56;9.70;99.90
50162;DHT22;36061;48.116;11.612;2024-03-02T10:08:23;9.70;99.90
50162;DHT22;36061;48.116;11.612;2024-03-02T10:10:51;9.70;99.90
50162;DHT22;36061;48.116;11.612;2024-03-02T10:13:18;9.80;99.90
50162;DHT22;36061;48.116;11.612;2024-03-02T10:15:45;9.80;99.90
50162;DHT22;36061;48.116;11.612;2024-03-02T10:18:13;9.90;99.90
50162;DHT22;36061;48.116;11.612;2024-03-02T10:20:43;10.00;99.90
50162;DHT22;36061;48.116;11.612;2024-03-02T10:23:11;10.10;99.90
50162;DHT22;36061;48.116;11.612;2024-03-02T10:25:39;10.10;99.90
50162;DHT22;36061;48.116;11.612;2024-03-02T10:28:06;10.20;99.90
50162;DHT22;36061;48.116;11.612;2024-03-02T10:30:34;10.20;99.90
50162;DHT22;36061;48.116;11.612;2024-03-02T10:33:02;10.30;99.90
50162;DHT22;36061;48.116;11.612;2024-03-02T10:35:29;10.30;99.90
50162;DHT22;36061;48.116;11.612;2024-03-02T10:38:00;10.40;99.90
50162;DHT22;36061;48.116;11.612;2024-03-02T10:40:30;10.40;99.90
50162;DHT22;36061;48.116;11.612;2024-03-02T10:42:57;10.50;99.90
50162;DHT22;36061;48.116;11.612;2024-03-02T10:45:25;10.60;99.90
50162;DHT22;36061;48.116;11.612;2024-03-02T10:47:53;10.70;99.90
50162;DHT22;36061;48.116;11.612;2024-03-02T10:50:20;10.80;99.90
50162;DHT22;36061;48.116;11.612;2024-03-02T10:52:47;10.80;99.90
50162;DHT22;36061;48.116;11.612;2024-03-02T10:55:17;10.90;99.90
50162;DHT22;36061;48.116;11.612;2024-03-02T10:57:50;10.90;99.90
50162;DHT22;36061;48.116;11.612;2024-03-02T11:00:19;10.90;99.90
50162;DHT22;36061;48.116;11.612;2024-03-02T11:02:52;11.00;99.90
50162;DHT22;36061;48.116;11.612;2024-03-02T11:05:27;11.00;99.90
50162;DHT22;36061;48.116;11.612;2024-03-02T11:08:00;11.10;99.90
50162;DHT22;36061;48.116;11.612;2024-03-02T11:10:38;11.40;99.90
50162;DHT22;36061;48.116;11.612;2024-03-02T11:13:09;11.10;99.90
50162;DHT22;36061;48.116;11.612;2024-03-02T11:15:40;11.20;99.90
50162;DHT22;36061;48.116;11.612;2024-03-02T11:18:11;11.30;99.90
50162;DHT22;36061;48.116;11.612;2024-03-02T11:20:39;11.20;99.90
50162;DHT22;36061;48.116;11.612;2024-03-02T11:23:08;11.30;99.90
50162;DHT22;36061;48.116;11.612;2024-03-02T11:25:36;11.30;99.90
50162;DHT22;36061;48.116;11.612;2024-03-02T11:28:06;11.20;99.90
50162;DHT22;36061;48.116;11.612;2024-03-02T11:30:53;11.20;99.90
50162;DHT22;36061;48.116;11.612;2024-03-02T11:33:24;11.20;99.90
50162;DHT22;36061;48.116;11.612;2024-03-02T11:35:53;11.30;99.90
50162;DHT22;36061;48.116;11.612;2024-03-02T11:38:21;11.30;99.90
50162;DHT22;36061;48.116;11.612;2024-03-02T11:40:49;11.40;99.90
50162;DHT22;36061;48.116;11.612;2024-03-02T11:43:17;11.40;99.90
50162;DHT22;36061;48.116;11.612;2024-03-02T11:45:44;11.50;99.90
50162;DHT22;36061;48.116;11.612;2024-03-02T11:48:13;11.60;99.90
50162;DHT22;36061;48.116;11.612;2024-03-02T11:50:42;11.60;99.90
50162;DHT22;36061;48.116;11.612;2024-03-02T11:53:10;11.60;99.90
50162;DHT22;36061;48.116;11.612;2024-03-02T11:55:39;11.60;99.90
50162;DHT22;36061;48.116;11.612;2024-03-02T11:58:08;11.70;99.90
50162;DHT22;36061;48.116;11.612;2024-03-02T12:00:36;11.70;99.90
50162;DHT22;36061;48.116;11.612;2024-03-02T12:03:05;11.70;99.90
50162;DHT22;36061;48.116;11.612;2024-03-02T12:05:34;11.80;99.90
50162;DHT22;36061;48.116;11.612;2024-03-02T12:08:03;11.80;99.90
50162;DHT22;36061;48.116;11.612;2024-03-02T12:10:32;11.80;99.90
50162;DHT22;36061;48.116;11.612;2024-03-02T12:13:01;11.90;99.90
50162;DHT22;36061;48.116;11.612;2024-03-02T12:15:31;11.90;99.90
50162;DHT22;36061;48.116;11.612;2024-03-02T12:18:00;12.00;99.90
50162;DHT22;36061;48.116;11.612;2024-03-02T12:20:29;12.00;99.90
50162;DHT22;36061;48.116;11.612;2024-03-02T12:22:59;12.00;99.90
50162;DHT22;36061;48.116;11.612;2024-03-02T12:25:28;12.00;99.90
50162;DHT22;36061;48.116;11.612;2024-03-02T12:27:58;12.10;99.90
50162;DHT22;36061;48.116;11.612;2024-03-02T12:30:27;12.10;99.90
50162;DHT22;36061;48.116;11.612;2024-03-02T12:32:59;12.20;99.90
50162;DHT22;36061;48.116;11.612;2024-03-02T12:35:27;12.30;99.90
50162;DHT22;36061;48.116;11.612;2024-03-02T12:37:54;12.30;99.90
50162;DHT22;36061;48.116;11.612;2024-03-02T12:40:22;12.30;99.90
50162;DHT22;36061;48.116;11.612;2024-03-02T12:42:50;12.20;99.90
50162;DHT22;36061;48.116;11.612;2024-03-02T12:45:18;12.30;99.90
50162;DHT22;36061;48.116;11.612;2024-03-02T12:47:50;12.20;99.90
50162;DHT22;36061;48.116;11.612;2024-03-02T12:50:19;12.30;99.90
50162;DHT22;36061;48.116;11.612;2024-03-02T12:52:51;12.30;99.90
50162;DHT22;36061;48.116;11.612;2024-03-02T12:55:20;12.30;99.90
50162;DHT22;36061;48.116;11.612;2024-03-02T12:57:49;12.30;99.90
50162;DHT22;36061;48.116;11.612;2024-03-02T13:00:19;12.40;99.90
50162;DHT22;36061;48.116;11.612;2024-03-02T13:02:47;12.40;99.90
50162;DHT22;36061;48.116;11.612;2024-03-02T13:05:16;12.40;99.90
50162;DHT22;36061;48.116;11.612;2024-03-02T13:07:47;12.50;99.90
50162;DHT22;36061;48.116;11.612;2024-03-02T13:10:14;12.50;99.90
50162;DHT22;36061;48.116;11.612;2024-03-02T13:12:42;12.50;99.90
50162;DHT22;36061;48.116;11.612;2024-03-02T13:15:09;12.60;99.90
50162;DHT22;36061;48.116;11.612;2024-03-02T13:17:37;12.60;99.90
50162;DHT22;36061;48.116;11.612;2024-03-02T13:20:06;12.50;99.90
50162;DHT22;36061;48.116;11.612;2024-03-02T13:22:36;12.50;99.90
50162;DHT22;36061;48.116;11.612;2024-03-02T13:25:05;12.60;99.90
50162;DHT22;36061;48.116;11.612;2024-03-02T13:27:36;12.50;99.90
50162;DHT22;36061;48.116;11.612;2024-03-02T13:30:04;12.50;99.90
50162;DHT22;36061;48.116;11.612;2024-03-02T13:32:34;12.50;99.90
50162;DHT22;36061;48.116;11.612;2024-03-02T13:35:02;12.60;99.90
50162;DHT22;36061;48.116;11.612;2024-03-02T13:37:30;12.70;99.90
50162;DHT22;36061;48.116;11.612;2024-03-02T13:39:57;12.60;99.90
50162;DHT22;36061;48.116;11.612;2024-03-02T13:42:26;12.60;99.90
50162;DHT22;36061;48.116;11.612;2024-03-02T13:44:53;12.70;99.90
50162;DHT22;36061;48.116;11.612;2024-03-02T13:47:20;12.70;99.90
50162;DHT22;36061;48.116;11.612;2024-03-02T13:49:48;12.70;99.90
50162;DHT22;36061;48.116;11.612;2024-03-02T13:52:15;12.70;99.90
50162;DHT22;36061;48.116;11.612;2024-03-02T13:54:44;12.70;99.90
50162;DHT22;36061;48.116;11.612;2024-03-02T13:57:12;12.70;99.90
50162;DHT22;36061;48.116;11.612;2024-03-02T13:59:42;12.70;99.90
50162;DHT22;36061;48.116;11.612;2024-03-02T14:02:10;12.70;99.90
50162;DHT22;36061;48.116;11.612;2024-03-02T14:04:38;12.70;99.90
50162;DHT22;36061;48.116;11.612;2024-03-02T14:07:06;12.60;99.90
50162;DHT22;36061;48.116;11.612;2024-03-02T14:09:34;12.70;99.90
50162;DHT22;36061;48.116;11.612;2024-03-02T14:12:03;12.70;99.90
50162;DHT22;36061;48.116;11.612;2024-03-02T14:14:31;12.70;99.90
50162;DHT22;36061;48.116;11.612;2024-03-02T14:17:00;12.70;99.90
50162;DHT22;36061;48.116;11.612;2024-03-02T14:19:30;12.70;99.90
50162;DHT22;36061;48.116;11.612;2024-03-02T14:21:57;12.70;99.90
50162;DHT22;36061;48.116;11.612;2024-03-02T14:24:25;12.70;99.90
50162;DHT22;36061;48.116;11.612;2024-03-02T14:26:54;12.60;99.90
50162;DHT22;36061;48.116;11.612;2024-03-02T14:29:23;12.60;99.90
50162;DHT22;36061;48.116;11.612;2024-03-02T14:31:50;12.70;99.90
50162;DHT22;36061;48.116;11.612;2024-03-02T14:34:19;12.60;99.90
50162;DHT22;36061;48.116;11.612;2024-03-02T14:36:46;12.60;99.90
50162;DHT22;36061;48.116;11.612;2024-03-02T14:39:14;12.60;99.90
50162;DHT22;36061;48.116;11.612;2024-03-02T14:41:41;12.60;99.90
50162;DHT22;36061;48.116;11.612;2024-03-02T14:44:08;12.50;99.90
50162;DHT22;36061;48.116;11.612;2024-03-02T14:46:36;12.50;99.90
50162;DHT22;36061;48.116;11.612;2024-03-02T14:49:04;12.50;99.90
50162;DHT22;36061;48.116;11.612;2024-03-02T14:51:33;12.50;99.90
50162;DHT22;36061;48.116;11.612;2024-03-02T14:54:00;12.60;99.90
50162;DHT22;36061;48.116;11.612;2024-03-02T14:56:29;12.60;99.90
50162;DHT22;36061;48.116;11.612;2024-03-02T14:58:56;12.60;99.90
50162;DHT22;36061;48.116;11.612;2024-03-02T15:01:24;12.70;99.90
50162;DHT22;36061;48.116;11.612;2024-03-02T15:03:51;12.70;99.90
50162;DHT22;36061;48.116;11.612;2024-03-02T15:06:19;12.70;99.90
50162;DHT22;36061;48.116;11.612;2024-03-02T15:08:48;12.70;99.90
50162;DHT22;36061;48.116;11.612;2024-03-02T15:11:16;12.70;99.90
50162;DHT22;36061;48.116;11.612;2024-03-02T15:13:43;12.60;99.90
50162;DHT22;36061;48.116;11.612;2024-03-02T15:16:11;12.60;99.90
50162;DHT22;36061;48.116;11.612;2024-03-02T15:18:38;12.60;99.90
50162;DHT22;36061;48.116;11.612;2024-03-02T15:21:06;12.60;99.90
50162;DHT22;36061;48.116;11.612;2024-03-02T15:23:33;12.60;99.90
50162;DHT22;36061;48.116;11.612;2024-03-02T15:26:02;12.50;99.90
50162;DHT22;36061;48.116;11.612;2024-03-02T15:28:30;12.50;99.90
50162;DHT22;36061;48.116;11.612;2024-03-02T15:30:57;12.50;99.90
50162;DHT22;36061;48.116;11.612;2024-03-02T15:33:24;12.40;99.90
50162;DHT22;36061;48.116;11.612;2024-03-02T15:35:58;12.40;99.90